createdAt,value
2023-04-14T00:01:17.203Z,99.90
2023-04-14T00:03:20.049Z,99.90
2023-04-14T00:05:23.249Z,99.90
2023-04-14T00:07:26.062Z,99.90
2023-04-14T00:09:28.852Z,99.90
2023-04-14T00:11:31.633Z,99.90
2023-04-14T00:13:34.451Z,99.90
2023-04-14T00:15:38.621Z,99.90
2023-04-14T00:17:41.397Z,99.90
2023-04-14T00:19:44.255Z,99.90
2023-04-14T00:21:47.036Z,99.90
2023-04-14T00:23:49.898Z,99.90
2023-04-14T00:25:52.675Z,99.90
2023-04-14T00:27:55.502Z,99.90
2023-04-14T00:29:58.258Z,99.90
2023-04-14T00:32:02.457Z,99.90
2023-04-14T00:34:05.385Z,99.90
2023-04-14T00:36:08.516Z,99.90
2023-04-14T00:38:11.967Z,99.90
2023-04-14T00:40:14.794Z,99.90
2023-04-14T00:42:17.563Z,99.90
2023-04-14T00:44:20.370Z,99.90
2023-04-14T00:46:23.211Z,99.90
2023-04-14T00:48:27.334Z,99.90
2023-04-14T00:50:30.570Z,99.90
2023-04-14T00:52:33.412Z,99.90
2023-04-14T00:54:36.157Z,99.90
2023-04-14T00:56:39.173Z,99.90
2023-04-14T00:58:41.961Z,99.90
2023-04-14T01:00:44.735Z,99.90
2023-04-14T01:02:47.695Z,99.90
2023-04-14T01:04:54.723Z,99.90
2023-04-14T01:06:57.789Z,99.90
2023-04-14T01:09:00.768Z,99.90
2023-04-14T01:11:07.681Z,99.90
2023-04-14T01:13:17.620Z,99.90
2023-04-14T01:15:23.788Z,99.90
2023-04-14T01:17:38.859Z,99.90
2023-04-14T01:19:54.930Z,99.90
2023-04-14T01:21:58.652Z,99.90
2023-04-14T01:24:26.855Z,99.90
2023-04-14T01:26:30.644Z,99.90
2023-04-14T01:28:43.534Z,99.90
2023-04-14T01:30:54.843Z,99.90
2023-04-14T01:32:59.604Z,99.90
2023-04-14T01:35:06.119Z,99.90
2023-04-14T01:37:10.190Z,99.90
2023-04-14T01:39:16.999Z,99.90
2023-04-14T01:41:19.799Z,99.90
2023-04-14T01:43:26.240Z,99.90
2023-04-14T01:45:31.139Z,99.90
2023-04-14T01:47:33.987Z,99.90
2023-04-14T01:49:39.357Z,99.90
2023-04-14T01:51:42.799Z,99.90
2023-04-14T01:53:46.008Z,99.90
2023-04-14T01:55:48.920Z,99.90
2023-04-14T01:57:52.998Z,99.90
2023-04-14T01:59:56.392Z,99.90
2023-04-14T02:02:00.908Z,99.90
2023-04-14T02:04:03.858Z,99.90
2023-04-14T02:06:08.716Z,99.90
2023-04-14T02:08:13.440Z,99.90
2023-04-14T02:10:16.426Z,99.90
2023-04-14T02:12:19.487Z,99.90
2023-04-14T02:14:22.414Z,99.90
2023-04-14T02:16:25.888Z,99.90
2023-04-14T02:18:28.837Z,99.90
2023-04-14T02:20:31.631Z,99.90
2023-04-14T02:22:35.723Z,99.90
2023-04-14T02:24:38.498Z,99.90
2023-04-14T02:26:43.367Z,99.90
2023-04-14T02:28:50.100Z,99.90
2023-04-14T02:30:53.191Z,99.90
2023-04-14T02:32:58.715Z,99.90
2023-04-14T02:35:03.326Z,99.90
2023-04-14T02:37:10.285Z,99.90
2023-04-14T02:39:17.728Z,99.90
2023-04-14T02:41:23.425Z,99.90
2023-04-14T02:43:29.650Z,99.90
2023-04-14T02:45:33.594Z,99.90
2023-04-14T02:47:38.195Z,99.90
2023-04-14T02:49:42.576Z,99.90
2023-04-14T02:51:45.342Z,99.90
2023-04-14T02:53:48.110Z,99.90
2023-04-14T02:55:52.528Z,99.90
2023-04-14T02:57:55.634Z,99.90
2023-04-14T02:59:58.564Z,99.90
2023-04-14T03:02:02.992Z,99.90
2023-04-14T03:04:06.210Z,99.90
2023-04-14T03:06:09.123Z,99.90
2023-04-14T03:08:12.550Z,99.90
2023-04-14T03:10:15.451Z,99.90
2023-04-14T03:12:19.717Z,99.90
2023-04-14T03:14:22.821Z,99.90
2023-04-14T03:16:25.690Z,99.90
2023-04-14T03:18:28.524Z,99.90
2023-04-14T03:20:31.297Z,99.90
2023-04-14T03:22:36.596Z,99.90
2023-04-14T03:24:39.738Z,99.90
2023-04-14T03:26:42.510Z,99.90
2023-04-14T03:28:48.205Z,99.90
2023-04-14T03:30:52.425Z,99.90
2023-04-14T03:32:55.310Z,99.90
2023-04-14T03:34:58.997Z,99.90
2023-04-14T03:37:01.839Z,99.90
2023-04-14T03:39:06.209Z,99.90
2023-04-14T03:41:09.984Z,99.90
2023-04-14T03:43:14.149Z,99.90
2023-04-14T03:45:18.411Z,99.90
2023-04-14T03:47:23.581Z,99.90
2023-04-14T03:49:26.918Z,99.90
2023-04-14T03:51:29.998Z,99.90
2023-04-14T03:53:34.738Z,99.90
2023-04-14T03:55:37.626Z,1.00
2023-04-14T03:57:40.486Z,1.00
2023-04-14T03:59:43.297Z,1.00
2023-04-14T04:01:47.479Z,1.00
2023-04-14T04:03:50.362Z,1.00
2023-04-14T04:05:53.720Z,1.00
2023-04-14T04:07:58.720Z,1.00
2023-04-14T04:10:01.540Z,1.00
2023-04-14T04:12:04.640Z,1.00
2023-04-14T04:14:08.065Z,1.00
2023-04-14T04:16:10.956Z,1.00
2023-04-14T04:18:16.739Z,1.00
2023-04-14T04:20:19.522Z,1.00
2023-04-14T04:22:22.892Z,1.00
2023-04-14T04:24:26.775Z,1.00
2023-04-14T04:26:29.576Z,1.00
2023-04-14T04:28:32.346Z,1.00
2023-04-14T04:30:35.291Z,1.00
2023-04-14T04:32:38.212Z,1.00
2023-04-14T04:34:42.348Z,1.00
2023-04-14T04:36:45.194Z,1.00
2023-04-14T04:38:49.778Z,1.00
2023-04-14T04:40:52.591Z,1.00
2023-04-14T04:42:55.394Z,1.00
2023-04-14T04:44:58.245Z,1.00
2023-04-14T04:47:01.115Z,1.00
2023-04-14T04:49:03.886Z,1.00
2023-04-14T04:51:08.988Z,1.00
2023-04-14T04:53:12.236Z,1.00
2023-04-14T04:55:15.422Z,1.00
2023-04-14T04:57:18.202Z,1.00
2023-04-14T04:59:20.968Z,1.00
2023-04-14T05:01:23.768Z,1.00
2023-04-14T05:03:26.576Z,1.00
2023-04-14T05:05:29.396Z,1.00
2023-04-14T05:07:33.698Z,1.00
2023-04-14T05:09:36.612Z,1.00
2023-04-14T05:11:39.731Z,1.00
2023-04-14T05:13:42.487Z,1.00
2023-04-14T05:15:45.311Z,1.00
2023-04-14T05:17:48.179Z,1.00
2023-04-14T05:19:51.340Z,1.00
2023-04-14T05:21:55.645Z,1.00
2023-04-14T05:24:00.386Z,1.00
2023-04-14T05:26:24.354Z,1.00
2023-04-14T05:28:26.334Z,1.00
2023-04-14T05:30:29.269Z,1.00
2023-04-14T05:32:32.100Z,1.00
2023-04-14T05:34:35.814Z,1.00
2023-04-14T05:36:38.604Z,1.00
2023-04-14T05:38:41.626Z,1.00
2023-04-14T05:40:45.872Z,1.00
2023-04-14T05:42:48.652Z,1.00
2023-04-14T05:44:51.418Z,1.00
2023-04-14T05:46:54.251Z,1.00
2023-04-14T05:48:57.684Z,1.00
2023-04-14T05:51:00.537Z,1.00
2023-04-14T05:53:03.301Z,1.00
2023-04-14T05:55:06.871Z,1.00
2023-04-14T05:57:11.000Z,1.00
2023-04-14T05:59:13.832Z,1.00
2023-04-14T06:01:16.608Z,1.00
2023-04-14T06:03:19.696Z,1.00
2023-04-14T06:05:24.245Z,1.00
2023-04-14T06:07:27.267Z,1.00
2023-04-14T06:09:30.069Z,1.00
2023-04-14T06:11:32.941Z,1.00
2023-04-14T06:13:37.061Z,1.00
2023-04-14T06:15:39.826Z,1.00
2023-04-14T06:17:42.614Z,1.00
2023-04-14T06:19:46.825Z,1.00
2023-04-14T06:21:49.636Z,1.00
2023-04-14T06:23:52.402Z,1.00
2023-04-14T06:25:55.609Z,1.00
2023-04-14T06:27:58.417Z,1.00
2023-04-14T06:30:02.830Z,1.00
2023-04-14T06:32:05.716Z,1.00
2023-04-14T06:34:08.514Z,1.00
2023-04-14T06:36:11.390Z,1.00
2023-04-14T06:38:14.162Z,1.00
2023-04-14T06:40:17.002Z,1.00
2023-04-14T06:42:19.795Z,1.00
2023-04-14T06:44:22.592Z,1.00
2023-04-14T06:46:26.891Z,1.00
2023-04-14T06:48:29.770Z,1.00
2023-04-14T06:50:32.548Z,1.00
2023-04-14T06:52:35.321Z,1.00
2023-04-14T06:54:38.072Z,1.00
2023-04-14T06:56:40.866Z,1.00
2023-04-14T06:58:43.648Z,1.00
2023-04-14T07:00:46.437Z,1.00
2023-04-14T07:02:50.653Z,1.00
2023-04-14T07:04:53.544Z,1.00
2023-04-14T07:07:00.410Z,1.00
2023-04-14T07:09:03.296Z,1.00
2023-04-14T07:11:07.077Z,99.90
2023-04-14T07:13:09.867Z,99.90
2023-04-14T07:15:14.187Z,99.90
2023-04-14T07:17:17.010Z,99.90
2023-04-14T07:19:21.165Z,99.90
2023-04-14T07:21:23.954Z,99.90
2023-04-14T07:23:27.278Z,99.90
2023-04-14T07:25:30.264Z,99.90
2023-04-14T07:27:33.130Z,99.90
2023-04-14T07:29:36.129Z,99.90
2023-04-14T07:31:40.188Z,99.90
2023-04-14T07:33:43.050Z,99.90
2023-04-14T07:35:58.723Z,99.90
2023-04-14T07:38:04.601Z,99.90
2023-04-14T07:40:08.998Z,99.90
2023-04-14T07:42:12.180Z,99.90
2023-04-14T07:44:14.956Z,99.90
2023-04-14T07:46:17.805Z,99.90
2023-04-14T07:48:21.496Z,99.90
2023-04-14T07:50:24.630Z,99.90
2023-04-14T07:52:28.982Z,99.90
2023-04-14T07:54:31.999Z,99.90
2023-04-14T07:56:34.828Z,99.90
2023-04-14T07:58:37.702Z,99.90
2023-04-14T08:00:40.559Z,99.90
2023-04-14T08:02:43.919Z,99.90
2023-04-14T08:04:46.806Z,99.90
2023-04-14T08:06:49.614Z,99.90
2023-04-14T08:08:53.738Z,99.90
2023-04-14T08:10:56.542Z,99.90
2023-04-14T08:13:00.176Z,99.90
2023-04-14T08:15:04.811Z,99.90
2023-04-14T08:17:07.619Z,99.90
2023-04-14T08:19:10.403Z,99.90
2023-04-14T08:21:13.173Z,99.90
2023-04-14T08:23:16.187Z,99.90
2023-04-14T08:25:20.310Z,99.90
2023-04-14T08:27:23.090Z,99.90
2023-04-14T08:29:26.299Z,99.90
2023-04-14T08:31:29.198Z,99.90
2023-04-14T08:33:33.796Z,99.90
2023-04-14T08:35:41.446Z,99.90
2023-04-14T08:37:45.889Z,99.90
2023-04-14T08:39:48.656Z,99.90
2023-04-14T08:41:53.027Z,99.90
2023-04-14T08:43:55.819Z,99.90
2023-04-14T08:45:58.664Z,99.90
2023-04-14T08:48:01.785Z,99.90
2023-04-14T08:50:06.045Z,99.90
2023-04-14T08:52:10.255Z,99.90
2023-04-14T08:54:13.516Z,99.90
2023-04-14T08:56:18.083Z,99.90
2023-04-14T08:58:22.348Z,99.90
2023-04-14T09:00:25.181Z,99.90
2023-04-14T09:02:28.420Z,99.90
2023-04-14T09:04:31.438Z,99.90
2023-04-14T09:06:34.413Z,99.90
2023-04-14T09:08:38.422Z,99.90
2023-04-14T09:10:42.758Z,99.90
2023-04-14T09:12:45.542Z,99.90
2023-04-14T09:14:49.678Z,99.90
2023-04-14T09:16:53.897Z,95.90
2023-04-14T09:18:56.769Z,95.70
2023-04-14T09:21:30.390Z,96.30
2023-04-14T09:23:26.387Z,93.60
2023-04-14T09:25:29.189Z,91.70
2023-04-14T09:27:31.952Z,91.50
2023-04-14T09:29:36.415Z,88.40
2023-04-14T09:31:40.729Z,81.60
2023-04-14T09:33:44.987Z,80.30
2023-04-14T09:35:48.616Z,73.50
2023-04-14T09:37:51.433Z,72.00
2023-04-14T09:39:55.650Z,67.60
2023-04-14T09:41:58.426Z,66.70
2023-04-14T09:44:08.207Z,59.50
2023-04-14T09:46:11.239Z,59.80
2023-04-14T09:48:15.432Z,53.20
2023-04-14T09:50:18.311Z,51.50
2023-04-14T09:52:21.202Z,48.60
2023-04-14T09:54:25.090Z,45.80
2023-04-14T09:56:28.888Z,45.50
2023-04-14T09:58:32.662Z,38.10
2023-04-14T10:00:35.842Z,38.10
2023-04-14T10:02:49.035Z,37.90
2023-04-14T10:05:06.267Z,37.40
2023-04-14T10:07:09.101Z,37.90
2023-04-14T10:09:12.089Z,31.80
2023-04-14T10:11:19.174Z,32.40
2023-04-14T10:13:22.032Z,31.40
2023-04-14T10:15:24.843Z,24.70
2023-04-14T10:17:29.566Z,21.70
2023-04-14T10:19:33.606Z,17.30
2023-04-14T10:21:37.753Z,16.70
2023-04-14T10:23:41.459Z,17.20
2023-04-14T10:25:44.262Z,19.60
2023-04-14T10:27:47.035Z,16.00
2023-04-14T10:29:50.159Z,15.00
2023-04-14T10:31:54.945Z,13.40
2023-04-14T10:33:58.260Z,11.60
2023-04-14T10:36:04.074Z,10.60
2023-04-14T10:38:08.475Z,11.00
2023-04-14T10:40:11.572Z,12.00
2023-04-14T10:42:14.357Z,9.60
2023-04-14T10:44:27.274Z,7.00
2023-04-14T10:46:43.157Z,5.30
2023-04-14T10:48:48.560Z,4.40
2023-04-14T10:50:51.349Z,1.00
2023-04-14T10:52:55.684Z,1.00
2023-04-14T10:55:07.863Z,1.00
2023-04-14T10:57:12.361Z,1.00
2023-04-14T10:59:17.478Z,1.00
2023-04-14T11:01:25.885Z,1.00
2023-04-14T11:03:31.876Z,1.00
2023-04-14T11:05:35.075Z,1.00
2023-04-14T11:07:40.451Z,1.00
2023-04-14T11:09:43.883Z,1.00
2023-04-14T11:11:49.218Z,1.00
2023-04-14T11:14:11.114Z,1.00
2023-04-14T11:16:14.777Z,1.00
2023-04-14T11:18:20.112Z,1.00
2023-04-14T11:20:23.484Z,1.00
2023-04-14T11:22:38.932Z,1.00
2023-04-14T11:24:41.670Z,1.00
2023-04-14T11:26:45.160Z,1.00
2023-04-14T11:28:49.287Z,1.00
2023-04-14T11:30:52.104Z,1.00
2023-04-14T11:32:57.335Z,1.00
2023-04-14T11:35:08.775Z,1.00
2023-04-14T11:37:11.561Z,1.00
2023-04-14T11:39:16.345Z,1.00
2023-04-14T11:41:20.372Z,1.00
2023-04-14T11:43:23.184Z,1.00
2023-04-14T11:45:29.852Z,1.00
2023-04-14T11:47:32.775Z,1.00
2023-04-14T11:49:36.229Z,1.00
2023-04-14T11:51:39.011Z,1.00
2023-04-14T11:53:43.151Z,1.00
2023-04-14T11:55:46.811Z,1.00
2023-04-14T11:57:49.628Z,1.00
2023-04-14T11:59:52.990Z,1.00
2023-04-14T12:01:58.264Z,1.00
2023-04-14T12:04:01.356Z,1.00
2023-04-14T12:06:04.640Z,1.00
2023-04-14T12:08:08.677Z,1.00
2023-04-14T12:10:12.378Z,1.00
2023-04-14T12:12:16.999Z,1.00
2023-04-14T12:14:20.213Z,1.00
2023-04-14T12:16:23.258Z,1.00
2023-04-14T12:18:27.413Z,1.00
2023-04-14T12:20:30.523Z,1.00
2023-04-14T12:22:33.324Z,1.00
2023-04-14T12:24:36.655Z,1.00
2023-04-14T12:26:39.868Z,1.00
2023-04-14T12:28:42.709Z,1.00
2023-04-14T12:31:06.118Z,1.00
2023-04-14T12:35:47.192Z,1.00
2023-04-14T12:38:12.560Z,1.00
2023-04-14T12:40:38.870Z,1.00
2023-04-14T12:43:17.130Z,1.00
2023-04-14T12:45:43.604Z,1.00
2023-04-14T12:48:06.793Z,1.00
2023-04-14T12:50:28.982Z,1.00
2023-04-14T12:52:36.923Z,1.00
2023-04-14T12:54:49.926Z,1.00
2023-04-14T12:56:53.352Z,1.00
2023-04-14T12:58:56.114Z,1.00
2023-04-14T13:00:58.935Z,1.00
2023-04-14T13:03:02.063Z,1.00
2023-04-14T13:05:06.033Z,1.00
2023-04-14T13:07:10.176Z,1.00
2023-04-14T13:09:13.071Z,1.00
2023-04-14T13:11:16.154Z,1.00
2023-04-14T13:13:18.904Z,1.00
2023-04-14T13:16:12.106Z,1.00
2023-04-14T13:17:44.644Z,1.00
2023-04-14T13:19:47.741Z,1.00
2023-04-14T13:21:51.312Z,1.00
2023-04-14T13:23:55.537Z,1.00
2023-04-14T13:25:58.345Z,1.00
2023-04-14T13:28:01.309Z,1.00
2023-04-14T13:30:04.317Z,1.00
2023-04-14T13:32:09.720Z,1.00
2023-04-14T13:34:12.520Z,1.00
2023-04-14T13:36:15.657Z,1.00
2023-04-14T13:38:18.665Z,1.00
2023-04-14T13:40:22.774Z,1.00
2023-04-14T13:42:25.609Z,1.00
2023-04-14T13:44:28.817Z,1.00
2023-04-14T13:46:38.499Z,1.00
2023-04-14T13:48:44.157Z,1.00
2023-04-14T13:50:47.414Z,1.00
2023-04-14T13:52:50.296Z,1.00
2023-04-14T13:54:53.210Z,1.00
2023-04-14T13:56:57.730Z,1.00
2023-04-14T13:59:00.877Z,1.00
2023-04-14T14:01:10.434Z,1.00
2023-04-14T14:03:13.400Z,1.00
2023-04-14T14:05:16.451Z,1.00
2023-04-14T14:07:19.242Z,1.00
2023-04-14T14:09:22.012Z,1.00
2023-04-14T14:11:24.792Z,1.00
2023-04-14T14:13:28.944Z,1.00
2023-04-14T14:15:31.826Z,1.00
2023-04-14T14:17:34.662Z,1.00
2023-04-14T14:19:37.582Z,1.00
2023-04-14T14:21:40.385Z,1.00
2023-04-14T14:23:43.151Z,1.00
2023-04-14T14:25:46.153Z,1.00
2023-04-14T14:27:49.074Z,1.00
2023-04-14T14:29:53.876Z,1.00
2023-04-14T14:31:56.856Z,1.00
2023-04-14T14:33:59.831Z,1.00
2023-04-14T14:36:03.181Z,1.00
2023-04-14T14:38:05.969Z,1.00
2023-04-14T14:40:10.033Z,1.00
2023-04-14T14:42:12.814Z,1.00
2023-04-14T14:44:15.612Z,1.00
2023-04-14T14:46:20.829Z,1.00
2023-04-14T14:48:23.919Z,1.00
2023-04-14T14:50:26.684Z,1.00
2023-04-14T14:52:33.817Z,1.00
2023-04-14T14:54:37.230Z,1.00
2023-04-14T14:56:40.165Z,1.00
2023-04-14T14:58:43.403Z,1.00
2023-04-14T15:00:46.768Z,1.00
2023-04-14T15:02:51.091Z,1.00
2023-04-14T15:04:54.625Z,1.00
2023-04-14T15:06:57.436Z,1.00
2023-04-14T15:09:00.657Z,1.00
2023-04-14T15:11:03.458Z,1.00
2023-04-14T15:13:07.328Z,1.00
2023-04-14T15:15:10.891Z,1.00
2023-04-14T15:17:13.684Z,1.00
2023-04-14T15:19:17.815Z,1.00
2023-04-14T15:21:20.615Z,1.00
2023-04-14T15:23:23.418Z,1.00
2023-04-14T15:25:26.190Z,1.00
2023-04-14T15:27:28.976Z,1.00
2023-04-14T15:29:31.792Z,1.00
2023-04-14T15:31:34.678Z,1.00
2023-04-14T15:33:37.470Z,1.00
2023-04-14T15:35:42.122Z,1.00
2023-04-14T15:37:45.011Z,1.00
2023-04-14T15:39:47.766Z,1.00
2023-04-14T15:41:51.361Z,1.00
2023-04-14T15:43:54.110Z,1.00
2023-04-14T15:45:56.950Z,1.00
2023-04-14T15:47:59.805Z,1.00
2023-04-14T15:50:09.807Z,1.00
2023-04-14T15:52:14.834Z,1.00
2023-04-14T15:54:17.623Z,1.00
2023-04-14T15:56:22.993Z,1.00
2023-04-14T15:58:27.349Z,1.00
2023-04-14T16:00:30.115Z,1.00
2023-04-14T16:02:34.761Z,1.00
2023-04-14T16:04:37.757Z,1.00
2023-04-14T16:06:40.744Z,1.00
2023-04-14T16:08:44.847Z,1.00
2023-04-14T16:10:48.797Z,1.00
2023-04-14T16:12:51.583Z,1.00
2023-04-14T16:14:54.532Z,1.00
2023-04-14T16:16:57.422Z,1.00
2023-04-14T16:19:00.673Z,1.00
2023-04-14T16:21:03.728Z,1.00
2023-04-14T16:23:06.591Z,1.00
2023-04-14T16:25:11.370Z,1.00
2023-04-14T16:27:14.162Z,1.00
2023-04-14T16:29:16.987Z,1.00
2023-04-14T16:31:19.748Z,1.00
2023-04-14T16:33:22.519Z,1.00
2023-04-14T16:35:25.736Z,1.00
2023-04-14T16:37:28.525Z,1.00
2023-04-14T16:39:31.659Z,1.00
2023-04-14T16:41:36.173Z,1.00
2023-04-14T16:43:38.972Z,1.00
2023-04-14T16:45:42.022Z,1.00
2023-04-14T16:47:44.836Z,1.00
2023-04-14T16:49:47.763Z,1.00
2023-04-14T16:51:50.508Z,1.00
2023-04-14T16:53:53.265Z,1.00
2023-04-14T16:55:56.023Z,1.00
2023-04-14T16:58:00.153Z,1.00
2023-04-14T17:00:03.306Z,1.00
2023-04-14T17:02:06.339Z,1.00
2023-04-14T17:04:09.767Z,1.00
2023-04-14T17:06:13.068Z,1.00
2023-04-14T17:08:15.825Z,1.00
2023-04-14T17:10:18.707Z,1.00
2023-04-14T17:12:22.358Z,1.00
2023-04-14T17:14:26.518Z,1.00
2023-04-14T17:16:29.635Z,1.00
2023-04-14T17:18:32.447Z,1.00
2023-04-14T17:20:35.220Z,1.00
2023-04-14T17:22:38.774Z,1.00
2023-04-14T17:24:41.526Z,1.00
2023-04-14T17:26:44.332Z,1.00
2023-04-14T17:28:47.325Z,1.00
2023-04-14T17:30:51.709Z,1.00
2023-04-14T17:32:55.159Z,1.00
2023-04-14T17:34:57.955Z,1.00
2023-04-14T17:37:00.738Z,1.00
2023-04-14T17:39:04.070Z,1.00
2023-04-14T17:41:07.878Z,1.00
2023-04-14T17:43:10.704Z,1.00
2023-04-14T17:45:13.558Z,1.00
2023-04-14T17:47:17.720Z,1.00
2023-04-14T17:49:21.266Z,1.00
2023-04-14T17:51:24.651Z,1.00
2023-04-14T17:53:27.582Z,1.00
2023-04-14T17:55:31.195Z,1.20
2023-04-14T17:57:33.972Z,3.70
2023-04-14T17:59:36.692Z,4.40
2023-04-14T18:01:40.609Z,6.90
2023-04-14T18:03:45.380Z,9.50
2023-04-14T18:05:48.215Z,11.60
2023-04-14T18:07:51.224Z,14.40
2023-04-14T18:09:54.683Z,17.70
2023-04-14T18:11:57.537Z,21.30
2023-04-14T18:14:00.474Z,23.20
2023-04-14T18:16:04.246Z,27.90
2023-04-14T18:18:07.079Z,30.10
2023-04-14T18:20:13.687Z,30.00
2023-04-14T18:22:16.489Z,30.10
2023-04-14T18:26:27.407Z,30.10
2023-04-14T18:28:30.316Z,34.60
2023-04-14T18:30:33.078Z,37.60
2023-04-14T18:32:35.916Z,42.00
2023-04-14T18:34:38.866Z,43.30
2023-04-14T18:36:43.014Z,45.30
2023-04-14T18:38:45.989Z,46.80
2023-04-14T18:40:49.205Z,48.30
2023-04-14T18:42:54.176Z,50.80
2023-04-14T18:44:56.946Z,53.70
2023-04-14T18:46:59.726Z,56.10
2023-04-14T18:49:03.444Z,59.10
2023-04-14T18:51:08.156Z,62.10
2023-04-14T18:53:12.558Z,66.30
2023-04-14T18:55:15.456Z,67.00
2023-04-14T18:57:18.437Z,71.90
2023-04-14T18:59:21.211Z,77.00
2023-04-14T19:01:24.096Z,78.70
2023-04-14T19:03:27.424Z,79.80
2023-04-14T19:05:30.711Z,81.00
2023-04-14T19:07:33.516Z,87.80
2023-04-14T19:09:37.698Z,89.20
2023-04-14T19:11:40.520Z,92.80
2023-04-14T19:13:43.305Z,92.80
2023-04-14T19:15:46.091Z,92.70
2023-04-14T19:17:48.938Z,92.70
2023-04-14T19:19:51.739Z,93.90
2023-04-14T19:21:54.792Z,95.60
2023-04-14T19:23:57.580Z,97.60
2023-04-14T19:26:02.370Z,99.90
2023-04-14T19:28:06.662Z,99.90
2023-04-14T19:30:10.221Z,99.90
2023-04-14T19:32:13.023Z,99.90
2023-04-14T19:34:15.967Z,99.90
2023-04-14T19:36:19.309Z,99.90
2023-04-14T19:38:22.135Z,99.90
2023-04-14T19:40:25.292Z,99.90
2023-04-14T19:42:29.447Z,99.90
2023-04-14T19:44:34.274Z,99.90
2023-04-14T19:46:37.232Z,99.90
2023-04-14T19:48:40.401Z,99.90
2023-04-14T19:50:43.782Z,99.90
2023-04-14T19:52:48.494Z,99.90
2023-04-14T19:54:52.122Z,99.90
2023-04-14T19:56:55.789Z,99.90
2023-04-14T19:59:00.481Z,99.90
2023-04-14T20:01:03.536Z,99.90
2023-04-14T20:03:06.385Z,99.90
2023-04-14T20:05:09.874Z,99.90
2023-04-14T20:07:12.731Z,99.90
2023-04-14T20:09:15.632Z,99.90
2023-04-14T20:11:18.404Z,99.90
2023-04-14T20:13:21.353Z,99.90
2023-04-14T20:15:25.930Z,99.90
2023-04-14T20:17:28.720Z,99.90
2023-04-14T20:19:31.549Z,99.90
2023-04-14T20:21:34.700Z,99.90
2023-04-14T20:23:37.545Z,99.90
2023-04-14T20:25:40.559Z,99.90
2023-04-14T20:27:43.926Z,99.90
2023-04-14T20:29:46.682Z,99.90
2023-04-14T20:31:51.430Z,99.90
2023-04-14T20:33:54.497Z,99.90
2023-04-14T20:35:59.915Z,99.90
2023-04-14T20:38:02.737Z,99.90
2023-04-14T20:40:06.518Z,99.90
2023-04-14T20:42:09.362Z,99.90
2023-04-14T20:44:12.333Z,99.90
2023-04-14T20:46:15.591Z,99.90
2023-04-14T20:48:20.451Z,99.90
2023-04-14T20:50:23.428Z,99.90
2023-04-14T20:52:28.057Z,99.90
2023-04-14T20:54:30.811Z,99.90
2023-04-14T20:56:34.047Z,99.90
2023-04-14T20:58:37.052Z,99.90
2023-04-14T21:00:40.120Z,99.90
2023-04-14T21:02:43.431Z,99.90
2023-04-14T21:04:47.781Z,99.90
2023-04-14T21:06:50.563Z,99.90
2023-04-14T21:08:53.330Z,99.90
2023-04-14T21:11:15.318Z,99.90
2023-04-14T21:15:40.331Z,99.90
2023-04-14T21:15:55.321Z,99.90
2023-04-14T21:17:59.307Z,99.90
2023-04-14T21:20:03.983Z,99.90
2023-04-14T21:22:08.082Z,99.90
2023-04-14T21:24:10.857Z,99.90
2023-04-14T21:26:14.196Z,99.90
2023-04-14T21:28:18.106Z,99.90
2023-04-14T21:30:20.908Z,99.90
2023-04-14T21:32:24.050Z,99.90
2023-04-14T21:34:27.983Z,99.90
2023-04-14T21:36:32.112Z,99.90
2023-04-14T21:38:34.882Z,99.90
2023-04-14T21:40:37.639Z,99.90
2023-04-14T21:42:40.624Z,99.90
2023-04-14T21:44:43.803Z,99.90
2023-04-14T21:46:46.864Z,99.90
2023-04-14T21:48:49.643Z,99.90
2023-04-14T21:50:52.395Z,99.90
2023-04-14T21:52:56.594Z,99.90
2023-04-14T21:54:59.338Z,99.90
2023-04-14T21:57:02.129Z,99.90
2023-04-14T21:59:04.894Z,99.90
2023-04-14T22:01:09.684Z,99.90
2023-04-14T22:03:13.046Z,99.90
2023-04-14T22:05:16.065Z,99.90
2023-04-14T22:07:18.868Z,99.90
2023-04-14T22:09:22.969Z,99.90
2023-04-14T22:11:25.822Z,99.90
2023-04-14T22:13:28.658Z,99.90
2023-04-14T22:15:31.408Z,99.90
2023-04-14T22:17:34.285Z,99.90
2023-04-14T22:19:37.054Z,99.90
2023-04-14T22:21:39.980Z,99.90
2023-04-14T22:23:43.579Z,99.90
2023-04-14T22:25:48.064Z,99.90
2023-04-14T22:27:50.855Z,99.90
2023-04-14T22:29:53.919Z,99.90
2023-04-14T22:31:56.869Z,99.90
2023-04-14T22:33:59.634Z,99.90
2023-04-14T22:36:04.457Z,99.90
2023-04-14T22:38:07.502Z,99.90
2023-04-14T22:40:10.811Z,99.90
2023-04-14T22:42:14.970Z,99.90
2023-04-14T22:44:17.851Z,99.90
2023-04-14T22:46:20.673Z,99.90
2023-04-14T22:48:23.462Z,99.90
2023-04-14T22:50:26.626Z,99.90
2023-04-14T22:52:29.389Z,99.90
2023-04-14T22:54:32.661Z,99.90
2023-04-14T22:56:36.350Z,99.90
2023-04-14T22:58:40.578Z,99.90
2023-04-14T23:00:44.087Z,99.90
2023-04-14T23:02:48.328Z,99.90
2023-04-14T23:04:51.251Z,99.90
2023-04-14T23:06:54.154Z,99.90
2023-04-14T23:08:57.032Z,99.90
2023-04-14T23:10:59.808Z,99.90
2023-04-14T23:13:02.648Z,99.90
2023-04-14T23:15:09.313Z,99.90
2023-04-14T23:17:12.304Z,99.90
2023-04-14T23:19:15.130Z,99.90
2023-04-14T23:21:17.905Z,99.90
2023-04-14T23:23:20.693Z,99.90
2023-04-14T23:25:23.501Z,99.90
2023-04-14T23:27:26.346Z,99.90
2023-04-14T23:29:29.097Z,99.90
2023-04-14T23:31:33.284Z,99.90
2023-04-14T23:33:36.095Z,99.90
2023-04-14T23:35:38.978Z,99.90
2023-04-14T23:37:41.793Z,99.90
2023-04-14T23:39:44.593Z,99.90
2023-04-14T23:41:47.669Z,99.90
2023-04-14T23:43:50.521Z,99.90
2023-04-14T23:45:53.309Z,99.90
2023-04-14T23:47:58.623Z,99.90
2023-04-14T23:50:01.796Z,99.90
2023-04-14T23:52:05.209Z,99.90
2023-04-14T23:54:08.176Z,99.90
2023-04-14T23:56:10.961Z,99.90
2023-04-14T23:58:13.876Z,99.90
